Time;durP1;ratioP1;P1;durP2;ratioP2;P2;SDS_P1;SDS_P2;PMS_P1;PMS_P2;Temp;Humidity;BMP_temperature;BMP_pressure;BME280_temperature;BME280_humidity;BME280_pressure;Samples;Min_cycle;Max_cycle;Signal;HPM_P1;HPM_P2
2022/08/09 00:01:01;;;;;;;3.40;1.98;;;;;;;;;;5146995;27;20062;-61
2022/08/09 00:03:28;;;;;;;5.80;3.05;;;;;;;;;;5144645;27;20031;-61
2022/08/09 00:05:55;;;;;;;6.28;3.28;;;;;;;;;;5138784;27;20119;-61
2022/08/09 00:08:21;;;;;;;4.70;2.40;;;;;;;;;;5131498;27;20108;-62
2022/08/09 00:10:47;;;;;;;5.07;2.90;;;;;;;;;;5131968;27;20085;-61
2022/08/09 00:13:14;;;;;;;4.90;3.03;;;;;;;;;;5131563;27;20394;-62
2022/08/09 00:15:40;;;;;;;6.85;3.63;;;;;;;;;;5130610;27;20103;-62
2022/08/09 00:18:07;;;;;;;5.63;3.72;;;;;;;;;;5131447;27;20093;-61
2022/08/09 00:20:33;;;;;;;4.90;2.85;;;;;;;;;;5131034;27;20444;-61
2022/08/09 00:22:59;;;;;;;9.93;2.35;;;;;;;;;;5132629;27;20055;-62
2022/08/09 00:25:25;;;;;;;4.85;2.35;;;;;;;;;;5129497;27;20054;-61
2022/08/09 00:27:51;;;;;;;4.45;2.53;;;;;;;;;;5130734;27;20039;-61
2022/08/09 00:30:17;;;;;;;6.28;2.10;;;;;;;;;;5131326;27;20039;-62
2022/08/09 00:32:44;;;;;;;3.13;1.50;;;;;;;;;;5131173;27;20179;-62
2022/08/09 00:35:10;;;;;;;3.08;1.40;;;;;;;;;;5132125;27;20059;-61
2022/08/09 00:37:36;;;;;;;3.28;1.40;;;;;;;;;;5129580;27;20035;-61
2022/08/09 00:40:02;;;;;;;3.63;1.85;;;;;;;;;;5132485;27;20035;-62
2022/08/09 00:42:29;;;;;;;7.00;1.88;;;;;;;;;;5110783;27;20050;-62
2022/08/09 00:44:55;;;;;;;5.65;2.20;;;;;;;;;;5129235;27;20053;-61
2022/08/09 00:47:22;;;;;;;4.93;1.58;;;;;;;;;;5114011;27;20471;-61
2022/08/09 00:49:48;;;;;;;4.18;1.48;;;;;;;;;;5133209;27;20039;-61
2022/08/09 00:52:14;;;;;;;3.38;1.20;;;;;;;;;;5119918;27;20175;-61
2022/08/09 00:54:41;;;;;;;4.00;1.00;;;;;;;;;;5140641;27;20088;-62
2022/08/09 00:57:07;;;;;;;1.73;0.98;;;;;;;;;;5123695;27;20038;-62
2022/08/09 00:59:33;;;;;;;4.35;1.50;;;;;;;;;;5145372;27;20030;-62
2022/08/09 01:02:01;;;;;;;4.75;1.48;;;;;;;;;;5132793;27;20106;-61
2022/08/09 01:04:34;;;;;;;1.90;1.10;;;;;;;;;;5138530;27;20039;-61
2022/08/09 01:07:08;;;;;;;1.52;0.90;;;;;;;;;;5139648;27;20032;-62
2022/08/09 01:09:37;;;;;;;2.30;0.95;;;;;;;;;;5100858;27;20078;-62
2022/08/09 01:12:16;;;;;;;1.75;0.98;;;;;;;;;;5132674;27;20050;-61
2022/08/09 01:14:55;;;;;;;1.90;0.85;;;;;;;;;;5135751;27;20100;-61
2022/08/09 01:17:23;;;;;;;5.82;0.82;;;;;;;;;;5136162;27;20138;-62
2022/08/09 01:19:54;;;;;;;1.50;0.60;;;;;;;;;;5135049;27;20077;-62
2022/08/09 01:22:39;;;;;;;5.03;0.75;;;;;;;;;;5137307;27;20035;-62
2022/08/09 01:25:12;;;;;;;4.00;1.10;;;;;;;;;;5134194;27;20080;-62
2022/08/09 01:27:40;;;;;;;1.88;0.90;;;;;;;;;;5138024;27;20039;-61
2022/08/09 01:30:07;;;;;;;1.95;0.73;;;;;;;;;;5114166;27;20047;-61
2022/08/09 01:32:35;;;;;;;5.20;0.70;;;;;;;;;;5133078;27;20122;-61
2022/08/09 01:35:04;;;;;;;2.15;0.90;;;;;;;;;;5134810;27;20066;-61
2022/08/09 01:37:30;;;;;;;2.75;1.08;;;;;;;;;;5138030;27;20427;-61
2022/08/09 01:39:58;;;;;;;1.27;0.80;;;;;;;;;;5133952;27;20103;-62
2022/08/09 01:42:24;;;;;;;2.75;1.00;;;;;;;;;;5131410;27;20565;-61
2022/08/09 01:44:53;;;;;;;5.13;1.70;;;;;;;;;;5133149;27;20123;-61
2022/08/09 01:47:20;;;;;;;3.40;1.13;;;;;;;;;;5134840;27;20058;-62
2022/08/09 01:49:48;;;;;;;2.92;1.33;;;;;;;;;;5135196;27;20122;-61
2022/08/09 01:52:15;;;;;;;6.32;1.15;;;;;;;;;;5133064;27;20043;-61
2022/08/09 01:54:47;;;;;;;4.97;1.02;;;;;;;;;;5134623;27;20046;-61
2022/08/09 01:57:14;;;;;;;2.85;0.85;;;;;;;;;;5133788;27;20061;-61
2022/08/09 01:59:42;;;;;;;1.83;0.85;;;;;;;;;;5133885;27;20104;-61
2022/08/09 02:02:10;;;;;;;2.90;0.70;;;;;;;;;;5131039;27;20451;-61
2022/08/09 02:04:38;;;;;;;4.47;0.65;;;;;;;;;;5128570;27;20498;-61
2022/08/09 02:07:13;;;;;;;9.23;0.90;;;;;;;;;;5123763;27;20040;-61
2022/08/09 02:09:41;;;;;;;9.35;1.10;;;;;;;;;;5124410;27;20121;-61
2022/08/09 02:12:09;;;;;;;2.67;0.80;;;;;;;;;;5139167;27;20101;-61
2022/08/09 02:14:37;;;;;;;4.03;0.60;;;;;;;;;;5124666;27;20054;-62
2022/08/09 02:17:03;;;;;;;6.65;1.02;;;;;;;;;;5143524;27;20080;-62
2022/08/09 02:19:29;;;;;;;1.67;0.50;;;;;;;;;;5132968;27;20102;-61
2022/08/09 02:21:57;;;;;;;6.20;1.10;;;;;;;;;;5138227;27;20045;-61
2022/08/09 02:24:25;;;;;;;4.88;1.10;;;;;;;;;;5143184;27;20688;-61
2022/08/09 02:26:54;;;;;;;6.10;1.50;;;;;;;;;;5117654;27;20518;-61
2022/08/09 02:29:23;;;;;;;7.00;1.40;;;;;;;;;;5140519;27;20027;-61
2022/08/09 02:31:50;;;;;;;5.00;1.45;;;;;;;;;;5137850;27;20062;-61
2022/08/09 02:34:19;;;;;;;4.35;1.50;;;;;;;;;;5133462;27;20128;-61
2022/08/09 02:36:51;;;;;;;3.75;1.42;;;;;;;;;;5131876;27;20459;-61
2022/08/09 02:39:22;;;;;;;3.65;1.42;;;;;;;;;;5133743;27;20046;-61
2022/08/09 02:41:50;;;;;;;5.63;1.25;;;;;;;;;;5134894;27;20051;-61
2022/08/09 02:44:19;;;;;;;4.15;1.35;;;;;;;;;;5136504;27;20046;-61
2022/08/09 02:46:46;;;;;;;9.70;1.95;;;;;;;;;;5133970;27;20039;-61
2022/08/09 02:49:14;;;;;;;5.05;1.88;;;;;;;;;;5136544;27;20051;-61
2022/08/09 02:51:42;;;;;;;6.85;1.30;;;;;;;;;;5136497;27;20038;-61
2022/08/09 02:54:10;;;;;;;6.13;1.13;;;;;;;;;;5132037;27;20039;-62
2022/08/09 02:56:37;;;;;;;3.85;0.95;;;;;;;;;;5133471;27;20740;-61
2022/08/09 02:59:05;;;;;;;1.58;0.80;;;;;;;;;;5131940;27;20039;-61
2022/08/09 03:01:32;;;;;;;3.60;1.20;;;;;;;;;;5140528;27;20030;-61
2022/08/09 03:04:00;;;;;;;3.65;1.23;;;;;;;;;;5139173;27;20766;-61
2022/08/09 03:06:26;;;;;;;1.90;1.00;;;;;;;;;;5135533;27;20375;-61
2022/08/09 03:08:53;;;;;;;6.35;1.90;;;;;;;;;;5136170;27;20050;-61
2022/08/09 03:11:21;;;;;;;3.20;1.25;;;;;;;;;;5139452;27;20044;-61
2022/08/09 03:13:48;;;;;;;4.70;1.63;;;;;;;;;;5136659;27;20046;-61
2022/08/09 03:16:17;;;;;;;6.40;2.03;;;;;;;;;;5139946;27;20402;-61
2022/08/09 03:18:45;;;;;;;5.95;1.70;;;;;;;;;;5131460;27;20043;-61
2022/08/09 03:21:12;;;;;;;3.63;1.48;;;;;;;;;;5133531;27;20129;-61
2022/08/09 03:23:38;;;;;;;3.85;1.48;;;;;;;;;;5138089;27;20113;-61
2022/08/09 03:26:05;;;;;;;3.85;1.70;;;;;;;;;;5139686;27;20442;-61
2022/08/09 03:28:32;;;;;;;3.97;1.15;;;;;;;;;;5141758;27;20030;-61
2022/08/09 03:30:58;;;;;;;2.83;1.15;;;;;;;;;;5138080;27;20039;-61
2022/08/09 03:33:26;;;;;;;4.85;1.38;;;;;;;;;;5132016;27;20379;-61
2022/08/09 03:35:52;;;;;;;2.65;1.27;;;;;;;;;;5138949;27;20122;-62
2022/08/09 03:38:18;;;;;;;2.03;0.73;;;;;;;;;;5138423;27;20622;-61
2022/08/09 03:40:44;;;;;;;1.38;0.60;;;;;;;;;;5137019;27;20086;-61
2022/08/09 03:43:10;;;;;;;3.40;0.90;;;;;;;;;;5140452;27;20042;-61
2022/08/09 03:45:37;;;;;;;5.35;1.10;;;;;;;;;;5135892;27;20031;-61
2022/08/09 03:48:03;;;;;;;2.38;0.80;;;;;;;;;;5143008;27;20069;-61
2022/08/09 03:50:30;;;;;;;3.60;1.17;;;;;;;;;;5139726;27;20090;-61
2022/08/09 03:52:59;;;;;;;2.85;0.70;;;;;;;;;;5119380;27;20043;-61
2022/08/09 03:55:25;;;;;;;6.28;0.90;;;;;;;;;;5141543;27;20042;-61
2022/08/09 03:57:52;;;;;;;2.08;1.00;;;;;;;;;;5136917;27;20096;-61
2022/08/09 04:00:19;;;;;;;2.42;0.75;;;;;;;;;;5130719;27;20062;-61
2022/08/09 04:02:46;;;;;;;4.05;0.85;;;;;;;;;;5130083;27;20070;-61
2022/08/09 04:05:12;;;;;;;9.52;1.10;;;;;;;;;;5128869;27;20118;-61
2022/08/09 04:07:38;;;;;;;5.20;1.38;;;;;;;;;;5110665;27;20494;-61
2022/08/09 04:10:05;;;;;;;12.82;1.38;;;;;;;;;;5128346;27;20140;-61
2022/08/09 04:12:45;;;;;;;12.20;1.13;;;;;;;;;;5128262;27;20390;-61
2022/08/09 04:15:13;;;;;;;4.47;1.00;;;;;;;;;;5135550;27;20370;-61
2022/08/09 04:17:40;;;;;;;4.50;1.27;;;;;;;;;;5141291;27;20066;-62
2022/08/09 04:20:06;;;;;;;1.50;0.80;;;;;;;;;;5139843;27;20061;-61
2022/08/09 04:22:32;;;;;;;3.50;0.95;;;;;;;;;;5139579;27;20540;-61
2022/08/09 04:24:59;;;;;;;4.55;1.13;;;;;;;;;;5142667;27;20030;-62
2022/08/09 04:27:25;;;;;;;3.83;1.45;;;;;;;;;;5141791;27;20401;-61
2022/08/09 04:29:51;;;;;;;3.72;1.10;;;;;;;;;;5140136;27;20331;-61
2022/08/09 04:32:18;;;;;;;2.20;1.05;;;;;;;;;;5138243;27;20038;-61
2022/08/09 04:34:44;;;;;;;2.50;1.30;;;;;;;;;;5137300;27;20438;-62
2022/08/09 04:37:10;;;;;;;7.15;1.60;;;;;;;;;;5141598;27;20068;-61
2022/08/09 04:39:36;;;;;;;8.65;2.30;;;;;;;;;;5138669;27;20409;-61
2022/08/09 04:42:02;;;;;;;3.58;1.33;;;;;;;;;;5139855;27;20363;-61
2022/08/09 04:44:29;;;;;;;5.68;1.25;;;;;;;;;;5139886;27;20131;-61
2022/08/09 04:46:55;;;;;;;5.90;1.40;;;;;;;;;;5136243;27;20439;-61
2022/08/09 04:49:21;;;;;;;3.70;1.25;;;;;;;;;;5140727;27;20042;-61
2022/08/09 04:51:47;;;;;;;4.03;1.30;;;;;;;;;;5120137;27;20041;-61
2022/08/09 04:54:13;;;;;;;6.05;1.85;;;;;;;;;;5122744;27;20063;-61
2022/08/09 04:56:40;;;;;;;3.63;1.42;;;;;;;;;;5136369;27;20104;-61
2022/08/09 04:59:06;;;;;;;6.68;1.35;;;;;;;;;;5132893;27;20113;-61
2022/08/09 05:01:32;;;;;;;4.40;2.05;;;;;;;;;;5142148;27;20039;-61
2022/08/09 05:03:58;;;;;;;6.32;1.73;;;;;;;;;;5130210;27;20406;-61
2022/08/09 05:06:24;;;;;;;6.55;2.10;;;;;;;;;;5132071;27;20347;-62
2022/08/09 05:08:50;;;;;;;4.85;2.45;;;;;;;;;;5131832;27;20039;-61
2022/08/09 05:11:16;;;;;;;9.77;2.97;;;;;;;;;;5132348;27;20126;-61
2022/08/09 05:13:43;;;;;;;4.88;3.05;;;;;;;;;;5134295;27;20402;-61
2022/08/09 05:16:10;;;;;;;5.65;2.50;;;;;;;;;;5132722;27;20039;-61
2022/08/09 05:18:36;;;;;;;6.63;2.63;;;;;;;;;;5113182;27;20510;-61
2022/08/09 05:21:02;;;;;;;4.75;2.42;;;;;;;;;;5116654;27;20135;-62
2022/08/09 05:23:29;;;;;;;6.13;2.72;;;;;;;;;;5131834;27;20035;-61
2022/08/09 05:25:55;;;;;;;4.15;2.95;;;;;;;;;;5129662;27;20128;-61
2022/08/09 05:28:21;;;;;;;5.00;2.95;;;;;;;;;;5115567;27;20462;-61
2022/08/09 05:30:48;;;;;;;4.20;2.67;;;;;;;;;;5135485;27;20070;-61
2022/08/09 05:33:14;;;;;;;6.38;2.42;;;;;;;;;;5132047;27;20053;-61
2022/08/09 05:35:40;;;;;;;3.25;2.00;;;;;;;;;;5134566;27;20034;-62
2022/08/09 05:38:06;;;;;;;3.22;1.67;;;;;;;;;;5132403;27;20046;-61
2022/08/09 05:40:33;;;;;;;3.45;1.40;;;;;;;;;;5134347;27;20071;-61
2022/08/09 05:42:59;;;;;;;2.47;1.20;;;;;;;;;;5132410;27;20479;-62
2022/08/09 05:45:25;;;;;;;2.33;1.27;;;;;;;;;;5131284;27;20129;-61
2022/08/09 05:47:51;;;;;;;2.80;1.33;;;;;;;;;;5135948;27;20038;-61
2022/08/09 05:50:17;;;;;;;7.22;1.40;;;;;;;;;;5133721;27;20080;-62
2022/08/09 05:52:44;;;;;;;4.47;1.27;;;;;;;;;;5131082;27;20095;-62
2022/08/09 05:55:10;;;;;;;2.90;1.80;;;;;;;;;;5132374;27;20038;-61
2022/08/09 05:57:37;;;;;;;3.15;1.20;;;;;;;;;;5134409;27;20050;-61
2022/08/09 06:00:05;;;;;;;1.98;1.10;;;;;;;;;;5131052;27;20042;-61
2022/08/09 06:02:31;;;;;;;4.95;1.95;;;;;;;;;;5128515;27;20046;-62
2022/08/09 06:04:57;;;;;;;4.47;2.28;;;;;;;;;;5125250;27;20142;-62
2022/08/09 06:07:23;;;;;;;5.88;2.53;;;;;;;;;;5126970;27;20081;-62
2022/08/09 06:09:50;;;;;;;8.25;2.83;;;;;;;;;;5126576;27;20101;-61
2022/08/09 06:12:16;;;;;;;6.90;3.03;;;;;;;;;;5126210;27;20117;-62
2022/08/09 06:14:42;;;;;;;9.55;3.60;;;;;;;;;;5129230;27;20130;-62
2022/08/09 06:17:08;;;;;;;21.33;4.50;;;;;;;;;;5127079;27;20068;-62
2022/08/09 06:19:34;;;;;;;9.95;4.65;;;;;;;;;;5125445;27;20180;-61
2022/08/09 06:22:01;;;;;;;14.02;5.82;;;;;;;;;;5127080;27;20039;-61
2022/08/09 06:24:27;;;;;;;14.05;5.72;;;;;;;;;;5108973;27;20139;-62
2022/08/09 06:26:53;;;;;;;10.82;5.78;;;;;;;;;;5122159;27;20035;-62
2022/08/09 06:29:19;;;;;;;11.38;5.30;;;;;;;;;;5107839;27;20051;-62
2022/08/09 06:31:46;;;;;;;18.85;6.57;;;;;;;;;;5130015;27;20087;-62
2022/08/09 06:34:12;;;;;;;10.50;6.65;;;;;;;;;;5127251;27;20131;-61
2022/08/09 06:36:38;;;;;;;12.77;6.90;;;;;;;;;;5131800;27;20057;-61
2022/08/09 06:39:04;;;;;;;14.32;8.43;;;;;;;;;;5135610;27;20043;-62
2022/08/09 06:41:31;;;;;;;15.07;8.68;;;;;;;;;;5138732;27;20130;-61
2022/08/09 06:43:58;;;;;;;18.58;9.43;;;;;;;;;;5140625;27;20517;-62
2022/08/09 06:46:24;;;;;;;15.10;9.50;;;;;;;;;;5135202;27;20039;-62
2022/08/09 06:48:50;;;;;;;16.70;8.50;;;;;;;;;;5140942;27;20051;-62
2022/08/09 06:51:16;;;;;;;18.85;9.68;;;;;;;;;;5134051;27;20075;-62
2022/08/09 06:53:43;;;;;;;16.13;9.57;;;;;;;;;;5132035;27;20037;-62
2022/08/09 06:56:09;;;;;;;14.82;7.95;;;;;;;;;;5131131;27;20468;-61
2022/08/09 06:58:35;;;;;;;14.30;8.02;;;;;;;;;;5112181;27;20454;-62
2022/08/09 07:01:01;;;;;;;12.65;6.47;;;;;;;;;;5132327;27;20121;-62
2022/08/09 07:03:28;;;;;;;16.27;6.50;;;;;;;;;;5129861;27;20446;-61
2022/08/09 07:05:55;;;;;;;12.73;6.20;;;;;;;;;;5103175;27;20089;-62
2022/08/09 07:08:21;;;;;;;13.60;4.97;;;;;;;;;;5128320;27;20035;-62
2022/08/09 07:10:47;;;;;;;11.38;4.40;;;;;;;;;;5129886;27;20066;-61
2022/08/09 07:13:13;;;;;;;10.43;4.53;;;;;;;;;;5129583;27;20035;-62
2022/08/09 07:15:39;;;;;;;7.85;4.47;;;;;;;;;;5129658;27;20051;-62
2022/08/09 07:18:05;;;;;;;8.23;3.75;;;;;;;;;;5130800;27;20039;-62
2022/08/09 07:20:31;;;;;;;11.13;4.07;;;;;;;;;;5134740;27;20774;-62
2022/08/09 07:22:58;;;;;;;9.73;3.00;;;;;;;;;;5127832;27;20043;-62
2022/08/09 07:25:24;;;;;;;8.00;2.60;;;;;;;;;;5127399;27;20055;-62
2022/08/09 07:27:50;;;;;;;6.95;2.40;;;;;;;;;;5119167;27;20097;-62
2022/08/09 07:30:17;;;;;;;7.18;2.67;;;;;;;;;;5134238;27;20031;-62
2022/08/09 07:32:43;;;;;;;6.30;2.50;;;;;;;;;;5133116;27;20044;-61
2022/08/09 07:35:11;;;;;;;7.32;3.13;;;;;;;;;;5122696;27;20097;-62
2022/08/09 07:37:37;;;;;;;6.10;2.70;;;;;;;;;;5140027;27;20030;-62
2022/08/09 07:40:04;;;;;;;7.90;2.70;;;;;;;;;;5139627;27;20623;-62
2022/08/09 07:42:30;;;;;;;7.90;3.00;;;;;;;;;;5137750;27;20039;-62
2022/08/09 07:44:56;;;;;;;6.88;2.58;;;;;;;;;;5119229;27;20477;-62
2022/08/09 07:47:22;;;;;;;5.63;1.83;;;;;;;;;;5137290;27;20458;-62
2022/08/09 07:49:49;;;;;;;5.65;2.17;;;;;;;;;;5139829;27;20126;-62
2022/08/09 07:52:15;;;;;;;9.32;2.80;;;;;;;;;;5136568;27;20035;-62
2022/08/09 07:54:41;;;;;;;6.03;2.13;;;;;;;;;;5142278;27;20042;-62
2022/08/09 07:57:08;;;;;;;5.70;2.00;;;;;;;;;;5141105;27;20034;-61
2022/08/09 07:59:34;;;;;;;9.05;2.30;;;;;;;;;;5138860;27;20042;-62
2022/08/09 08:02:00;;;;;;;8.68;2.42;;;;;;;;;;5128556;27;20035;-62
2022/08/09 08:04:26;;;;;;;6.72;2.20;;;;;;;;;;5126808;27;20403;-62
2022/08/09 08:06:52;;;;;;;6.07;2.28;;;;;;;;;;5129175;27;20037;-61
2022/08/09 08:09:18;;;;;;;6.40;2.35;;;;;;;;;;5110817;27;20083;-62
2022/08/09 08:11:45;;;;;;;8.82;2.67;;;;;;;;;;5128920;27;20126;-62
2022/08/09 08:14:11;;;;;;;5.43;2.17;;;;;;;;;;5131464;27;20142;-62
2022/08/09 08:16:37;;;;;;;9.70;3.08;;;;;;;;;;5109179;27;20047;-61
2022/08/09 08:19:03;;;;;;;5.53;2.13;;;;;;;;;;5128497;27;20074;-62
2022/08/09 08:21:30;;;;;;;6.22;2.20;;;;;;;;;;5131526;27;20071;-62
2022/08/09 08:23:56;;;;;;;6.75;2.35;;;;;;;;;;5130902;27;21696;-62
2022/08/09 08:26:22;;;;;;;5.88;2.42;;;;;;;;;;5129879;27;20091;-62
2022/08/09 08:28:48;;;;;;;4.93;2.25;;;;;;;;;;5131633;27;20080;-62
2022/08/09 08:31:14;;;;;;;6.50;2.38;;;;;;;;;;5131839;27;20051;-62
2022/08/09 08:33:41;;;;;;;6.72;2.45;;;;;;;;;;5130218;27;20043;-62
2022/08/09 08:36:07;;;;;;;4.75;1.90;;;;;;;;;;5130707;27;20039;-62
2022/08/09 08:38:33;;;;;;;4.22;1.70;;;;;;;;;;5128787;27;20054;-62
2022/08/09 08:41:00;;;;;;;5.95;1.67;;;;;;;;;;5129105;27;20127;-62
2022/08/09 08:43:26;;;;;;;5.43;1.90;;;;;;;;;;5129124;27;20048;-62
2022/08/09 08:45:54;;;;;;;4.65;2.13;;;;;;;;;;5128438;27;20058;-62
2022/08/09 08:48:21;;;;;;;6.38;2.47;;;;;;;;;;5127805;27;20047;-62
2022/08/09 08:50:48;;;;;;;9.45;2.15;;;;;;;;;;5135697;27;20043;-62
2022/08/09 08:53:15;;;;;;;5.10;2.00;;;;;;;;;;5131019;27;20420;-62
2022/08/09 08:55:43;;;;;;;4.22;1.90;;;;;;;;;;5128357;27;20088;-62
2022/08/09 08:58:10;;;;;;;6.07;1.88;;;;;;;;;;5127756;27;20570;-62
2022/08/09 09:00:36;;;;;;;5.35;1.90;;;;;;;;;;5125334;27;20438;-62
2022/08/09 09:03:03;;;;;;;5.22;1.80;;;;;;;;;;5124387;27;20035;-62
2022/08/09 09:05:30;;;;;;;6.97;1.85;;;;;;;;;;5126753;27;20071;-62
2022/08/09 09:07:57;;;;;;;6.75;2.13;;;;;;;;;;5128837;27;20083;-62
2022/08/09 09:10:25;;;;;;;7.13;1.90;;;;;;;;;;5127516;27;20042;-62
2022/08/09 09:12:52;;;;;;;6.70;2.00;;;;;;;;;;5125704;27;20035;-62
2022/08/09 09:15:19;;;;;;;5.78;1.85;;;;;;;;;;5127388;27;20450;-62
2022/08/09 09:17:45;;;;;;;5.25;1.70;;;;;;;;;;5125879;27;20091;-62
2022/08/09 09:20:13;;;;;;;7.30;2.05;;;;;;;;;;5139951;27;20134;-62
2022/08/09 09:22:55;;;;;;;5.35;2.13;;;;;;;;;;5135088;27;20505;-62
2022/08/09 09:25:32;;;;;;;6.20;1.48;;;;;;;;;;5134585;27;20115;-62
2022/08/09 09:27:59;;;;;;;5.30;1.85;;;;;;;;;;5134534;27;20359;-62
2022/08/09 09:30:25;;;;;;;6.03;1.80;;;;;;;;;;5117362;27;20454;-62
2022/08/09 09:33:05;;;;;;;5.05;1.77;;;;;;;;;;5135226;27;20065;-62
2022/08/09 09:35:31;;;;;;;7.90;1.20;;;;;;;;;;5135363;27;20053;-62
2022/08/09 09:37:58;;;;;;;3.97;1.25;;;;;;;;;;5135629;27;20108;-62
2022/08/09 09:40:40;;;;;;;7.15;1.38;;;;;;;;;;5137243;27;20047;-62
2022/08/09 09:43:06;;;;;;;3.20;0.90;;;;;;;;;;5134569;27;20431;-62
2022/08/09 09:45:46;;;;;;;4.32;1.17;;;;;;;;;;5134954;27;20039;-62
2022/08/09 09:48:13;;;;;;;3.50;0.90;;;;;;;;;;5138341;27;20035;-62
2022/08/09 09:50:41;;;;;;;3.05;0.80;;;;;;;;;;5130456;27;20035;-62
2022/08/09 09:53:13;;;;;;;2.42;0.70;;;;;;;;;;5132423;27;20030;-62
2022/08/09 09:55:56;;;;;;;1.80;0.70;;;;;;;;;;5131399;27;20042;-62
2022/08/09 09:58:22;;;;;;;2.17;0.70;;;;;;;;;;5129810;27;20391;-62
2022/08/09 10:00:50;;;;;;;3.25;1.00;;;;;;;;;;5129918;27;20042;-62
2022/08/09 10:03:16;;;;;;;4.35;0.90;;;;;;;;;;5137650;27;20100;-62
2022/08/09 10:05:58;;;;;;;2.42;0.90;;;;;;;;;;5130486;27;20035;-62
2022/08/09 10:08:24;;;;;;;3.25;0.90;;;;;;;;;;5116477;27;20076;-62
2022/08/09 10:10:51;;;;;;;2.20;0.60;;;;;;;;;;5134786;27;20130;-62
2022/08/09 10:13:17;;;;;;;2.28;0.70;;;;;;;;;;5131167;27;20066;-62
2022/08/09 10:15:50;;;;;;;2.72;0.70;;;;;;;;;;5131382;27;20091;-62
2022/08/09 10:18:17;;;;;;;3.97;0.75;;;;;;;;;;5128972;27;20447;-62
2022/08/09 10:20:43;;;;;;;1.70;0.60;;;;;;;;;;5128786;27;20065;-62
2022/08/09 10:23:14;;;;;;;3.53;0.90;;;;;;;;;;5131288;27;20528;-62
2022/08/09 10:25:40;;;;;;;2.63;0.80;;;;;;;;;;5131560;27;20053;-62
2022/08/09 10:28:07;;;;;;;2.53;0.90;;;;;;;;;;5137257;27;20158;-62
2022/08/09 10:30:33;;;;;;;2.30;0.82;;;;;;;;;;5136243;27;20039;-62
2022/08/09 10:32:59;;;;;;;3.30;0.80;;;;;;;;;;5129774;27;20137;-62
2022/08/09 10:35:26;;;;;;;3.25;1.05;;;;;;;;;;5114130;27;20091;-62
2022/08/09 10:37:52;;;;;;;2.65;0.93;;;;;;;;;;5131722;27;20499;-62
2022/08/09 10:40:19;;;;;;;3.08;0.82;;;;;;;;;;5126207;27;20197;-62
2022/08/09 10:42:45;;;;;;;3.58;0.82;;;;;;;;;;5126167;27;20070;-62
2022/08/09 10:45:12;;;;;;;2.45;0.95;;;;;;;;;;5126725;27;20390;-62
2022/08/09 10:47:39;;;;;;;2.88;0.90;;;;;;;;;;5127052;27;20039;-62
2022/08/09 10:50:27;;;;;;;2.85;0.90;;;;;;;;;;5127336;27;20100;-62
2022/08/09 10:52:56;;;;;;;1.75;0.43;;;;;;;;;;5126976;27;20031;-62
2022/08/09 10:55:24;;;;;;;3.30;0.82;;;;;;;;;;5126087;27;20047;-62
2022/08/09 10:57:51;;;;;;;2.03;0.60;;;;;;;;;;5126303;27;20065;-62
2022/08/09 11:00:26;;;;;;;3.58;0.60;;;;;;;;;;5123119;27;20490;-62
2022/08/09 11:02:52;;;;;;;5.30;0.75;;;;;;;;;;5132563;27;20090;-62
2022/08/09 11:05:20;;;;;;;3.13;0.55;;;;;;;;;;5130672;27;20114;-62
2022/08/09 11:07:46;;;;;;;12.38;0.88;;;;;;;;;;5131300;27;20096;-62
2022/08/09 11:10:13;;;;;;;3.28;0.70;;;;;;;;;;5131904;27;20043;-62
2022/08/09 11:12:39;;;;;;;4.60;0.70;;;;;;;;;;5132425;27;20054;-62
2022/08/09 11:15:18;;;;;;;1.80;0.60;;;;;;;;;;5132293;27;20039;-62
2022/08/09 11:17:45;;;;;;;4.68;0.60;;;;;;;;;;5133543;27;20448;-62
2022/08/09 11:20:14;;;;;;;1.92;0.68;;;;;;;;;;5133288;27;20055;-62
2022/08/09 11:22:40;;;;;;;3.40;0.57;;;;;;;;;;5137050;27;20042;-62
2022/08/09 11:25:10;;;;;;;0.90;0.50;;;;;;;;;;5136288;27;20039;-63
2022/08/09 11:27:39;;;;;;;1.33;0.40;;;;;;;;;;5140627;27;20145;-62
2022/08/09 11:30:06;;;;;;;1.98;0.60;;;;;;;;;;5142613;27;20047;-62
2022/08/09 11:32:40;;;;;;;1.83;0.50;;;;;;;;;;5134375;27;20050;-63
2022/08/09 11:35:08;;;;;;;0.80;0.40;;;;;;;;;;5141209;27;20038;-62
2022/08/09 11:37:35;;;;;;;1.63;0.50;;;;;;;;;;5137261;27;20070;-62
2022/08/09 11:40:03;;;;;;;2.45;0.50;;;;;;;;;;5140966;27;20484;-63
2022/08/09 11:42:39;;;;;;;2.75;0.43;;;;;;;;;;5141909;27;20054;-63
2022/08/09 11:45:18;;;;;;;1.52;0.43;;;;;;;;;;5141262;27;20054;-62
2022/08/09 11:47:45;;;;;;;3.33;0.40;;;;;;;;;;5138062;27;20038;-62
2022/08/09 11:50:11;;;;;;;1.98;0.52;;;;;;;;;;5141615;27;20046;-62
2022/08/09 11:52:56;;;;;;;1.45;0.52;;;;;;;;;;5140410;27;20043;-62
2022/08/09 11:55:33;;;;;;;1.25;0.60;;;;;;;;;;5138143;27;20665;-63
2022/08/09 11:58:01;;;;;;;1.38;0.40;;;;;;;;;;5141258;27;20170;-63
2022/08/09 12:00:28;;;;;;;0.90;0.40;;;;;;;;;;5138643;27;20051;-63
2022/08/09 12:02:55;;;;;;;3.13;0.50;;;;;;;;;;5136601;27;20122;-63
2022/08/09 12:05:21;;;;;;;1.58;0.35;;;;;;;;;;5132886;27;20043;-63
2022/08/09 12:07:47;;;;;;;1.95;0.50;;;;;;;;;;5134718;27;20039;-63
2022/08/09 12:10:14;;;;;;;1.77;0.38;;;;;;;;;;5136735;27;20047;-63
2022/08/09 12:12:47;;;;;;;1.75;0.47;;;;;;;;;;5132667;27;20047;-63
2022/08/09 12:15:18;;;;;;;3.35;0.50;;;;;;;;;;5134801;27;20038;-61
2022/08/09 12:17:47;;;;;;;1.75;0.52;;;;;;;;;;5134426;27;20070;-62
2022/08/09 12:20:15;;;;;;;2.25;0.60;;;;;;;;;;5134150;27;20104;-62
2022/08/09 12:22:42;;;;;;;2.70;0.60;;;;;;;;;;5143139;27;20037;-62
2022/08/09 12:25:10;;;;;;;0.85;0.40;;;;;;;;;;5138151;27;20097;-62
2022/08/09 12:27:36;;;;;;;1.15;0.35;;;;;;;;;;5137047;27;20585;-61
2022/08/09 12:30:03;;;;;;;1.10;0.30;;;;;;;;;;5135313;27;20043;-62
2022/08/09 12:32:29;;;;;;;1.27;0.50;;;;;;;;;;5141093;27;20035;-62
2022/08/09 12:35:00;;;;;;;2.75;0.40;;;;;;;;;;5141749;27;20143;-62
2022/08/09 12:37:31;;;;;;;2.85;0.60;;;;;;;;;;5137839;27;20368;-62
2022/08/09 12:40:03;;;;;;;1.60;0.52;;;;;;;;;;5127206;27;20138;-62
2022/08/09 12:42:29;;;;;;;1.08;0.30;;;;;;;;;;5119219;27;20046;-62
2022/08/09 12:44:56;;;;;;;2.75;0.50;;;;;;;;;;5134351;27;20381;-62
2022/08/09 12:47:22;;;;;;;1.95;0.50;;;;;;;;;;5134215;27;20059;-62
2022/08/09 12:50:15;;;;;;;2.67;0.40;;;;;;;;;;5134576;27;20092;-62
2022/08/09 12:52:37;;;;;;;1.40;0.50;;;;;;;;;;5133624;27;20126;-62
2022/08/09 12:55:03;;;;;;;3.35;0.52;;;;;;;;;;5131732;27;20058;-62
2022/08/09 12:57:36;;;;;;;1.27;0.40;;;;;;;;;;5125865;27;20035;-62
2022/08/09 13:00:13;;;;;;;0.88;0.40;;;;;;;;;;5106892;27;20046;-62
2022/08/09 13:02:49;;;;;;;3.58;0.40;;;;;;;;;;5127505;27;20096;-62
2022/08/09 13:05:16;;;;;;;1.50;0.43;;;;;;;;;;5127540;27;20086;-62
2022/08/09 13:07:43;;;;;;;1.92;0.50;;;;;;;;;;5126846;27;20047;-61
2022/08/09 13:10:09;;;;;;;1.35;0.50;;;;;;;;;;5128469;27;20039;-62
2022/08/09 13:12:46;;;;;;;1.67;0.45;;;;;;;;;;5128879;27;20035;-62
2022/08/09 13:15:12;;;;;;;2.33;0.50;;;;;;;;;;5127782;27;20134;-62
2022/08/09 13:17:39;;;;;;;1.95;0.60;;;;;;;;;;5137220;27;20066;-62
2022/08/09 13:20:07;;;;;;;2.15;0.50;;;;;;;;;;5134536;27;20045;-62
2022/08/09 13:22:33;;;;;;;1.52;0.68;;;;;;;;;;5128238;27;20051;-62
2022/08/09 13:24:59;;;;;;;2.10;0.47;;;;;;;;;;5127631;27;20130;-62
2022/08/09 13:27:26;;;;;;;1.25;0.65;;;;;;;;;;5127210;27;20043;-62
2022/08/09 13:29:52;;;;;;;1.90;0.50;;;;;;;;;;5126298;27;20031;-62
2022/08/09 13:32:19;;;;;;;2.30;0.50;;;;;;;;;;5127591;27;20039;-62
2022/08/09 13:34:45;;;;;;;2.47;0.60;;;;;;;;;;5126636;27;20123;-62
2022/08/09 13:37:11;;;;;;;1.60;0.45;;;;;;;;;;5127721;27;20465;-62
2022/08/09 13:39:38;;;;;;;0.77;0.30;;;;;;;;;;5131937;27;20130;-62
2022/08/09 13:42:04;;;;;;;1.08;0.45;;;;;;;;;;5136235;27;20126;-62
2022/08/09 13:44:31;;;;;;;1.83;0.60;;;;;;;;;;5137911;27;20054;-62
2022/08/09 13:46:58;;;;;;;3.63;0.50;;;;;;;;;;5130243;27;20117;-62
2022/08/09 13:49:24;;;;;;;2.05;0.47;;;;;;;;;;5125801;27;20047;-62
2022/08/09 13:51:50;;;;;;;2.47;0.50;;;;;;;;;;5126616;27;20366;-62
2022/08/09 13:54:17;;;;;;;1.00;0.28;;;;;;;;;;5127651;27;20070;-62
2022/08/09 13:56:43;;;;;;;1.85;0.50;;;;;;;;;;5125537;27;20051;-62
2022/08/09 13:59:10;;;;;;;4.40;0.55;;;;;;;;;;5125921;27;20038;-62
2022/08/09 14:01:36;;;;;;;2.58;0.45;;;;;;;;;;5127550;27;20047;-62
2022/08/09 14:04:02;;;;;;;3.85;0.35;;;;;;;;;;5128567;27;20068;-62
2022/08/09 14:06:29;;;;;;;0.98;0.40;;;;;;;;;;5129881;27;20046;-62
2022/08/09 14:08:55;;;;;;;1.70;0.50;;;;;;;;;;5129019;27;20043;-62
2022/08/09 14:11:21;;;;;;;1.27;0.30;;;;;;;;;;5131360;27;20118;-62
2022/08/09 14:13:48;;;;;;;1.00;0.28;;;;;;;;;;5127790;27;20054;-62
2022/08/09 14:16:15;;;;;;;0.82;0.40;;;;;;;;;;5133412;27;20047;-62
2022/08/09 14:18:42;;;;;;;0.70;0.30;;;;;;;;;;5134853;27;20043;-62
2022/08/09 14:21:16;;;;;;;0.70;0.30;;;;;;;;;;5134717;27;20089;-62
2022/08/09 14:23:42;;;;;;;;;;;;;;;;;;5133218;27;20066;-62
2022/08/09 14:26:08;;;;;;;1.27;0.30;;;;;;;;;;5132343;27;19992;-62
2022/08/09 14:28:34;;;;;;;2.22;0.30;;;;;;;;;;5137961;27;20039;-62
2022/08/09 14:31:00;;;;;;;1.15;0.40;;;;;;;;;;5135499;27;20052;-62
2022/08/09 14:33:26;;;;;;;1.30;0.20;;;;;;;;;;5126870;27;20039;-62
2022/08/09 14:35:52;;;;;;;2.58;0.45;;;;;;;;;;5124089;27;20048;-62
2022/08/09 14:38:19;;;;;;;0.90;0.30;;;;;;;;;;5125989;27;20031;-62
2022/08/09 14:40:45;;;;;;;1.00;0.30;;;;;;;;;;5125875;27;20105;-62
2022/08/09 14:43:11;;;;;;;1.35;0.30;;;;;;;;;;5128358;27;20117;-62
2022/08/09 14:45:37;;;;;;;0.47;0.30;;;;;;;;;;5127526;27;20135;-62